createdAt,value
2018-10-07T00:01:36.592Z,98.50
2018-10-07T00:04:04.878Z,98.60
2018-10-07T00:06:33.160Z,98.60
2018-10-07T00:09:01.473Z,98.70
2018-10-07T00:11:29.773Z,98.90
2018-10-07T00:13:58.080Z,99.00
2018-10-07T00:16:26.376Z,99.10
2018-10-07T00:18:54.698Z,98.90
2018-10-07T00:21:22.967Z,98.80
2018-10-07T00:23:51.311Z,98.80
2018-10-07T00:26:19.628Z,99.00
2018-10-07T00:28:47.970Z,99.10
2018-10-07T00:31:16.258Z,99.00
2018-10-07T00:33:44.532Z,99.00
2018-10-07T00:36:12.826Z,99.10
2018-10-07T00:38:41.169Z,99.30
2018-10-07T00:41:09.443Z,99.30
2018-10-07T00:43:37.739Z,99.20
2018-10-07T00:46:06.011Z,99.30
2018-10-07T00:48:34.312Z,99.40
2018-10-07T00:51:02.576Z,99.30
2018-10-07T00:53:30.863Z,99.10
2018-10-07T00:55:59.528Z,99.00
2018-10-07T00:58:27.843Z,99.10
2018-10-07T01:00:56.111Z,98.80
2018-10-07T01:03:24.455Z,99.30
2018-10-07T01:05:52.737Z,98.90
2018-10-07T01:08:21.028Z,98.80
2018-10-07T01:10:49.304Z,98.70
2018-10-07T01:15:52.223Z,98.70
2018-10-07T01:18:20.516Z,98.90
2018-10-07T01:20:48.807Z,98.50
2018-10-07T01:23:17.082Z,97.80
2018-10-07T01:25:45.403Z,97.70
2018-10-07T01:28:13.685Z,97.70
2018-10-07T01:30:41.976Z,97.70
2018-10-07T01:33:10.256Z,97.70
2018-10-07T01:35:38.527Z,97.90
2018-10-07T01:38:06.920Z,97.70
2018-10-07T01:40:35.264Z,97.70
2018-10-07T01:43:03.560Z,97.50
2018-10-07T01:45:31.839Z,97.00
2018-10-07T01:48:00.173Z,97.10
2018-10-07T01:50:28.495Z,97.20
2018-10-07T01:52:56.799Z,97.00
2018-10-07T01:55:25.092Z,97.20
2018-10-07T01:57:53.411Z,97.00
2018-10-07T02:00:21.695Z,97.10
2018-10-07T02:02:49.985Z,96.80
2018-10-07T02:05:18.275Z,96.80
2018-10-07T02:07:46.563Z,96.90
2018-10-07T02:10:14.874Z,96.60
2018-10-07T02:12:43.147Z,96.60
2018-10-07T02:15:11.442Z,96.40
2018-10-07T02:17:39.764Z,96.30
2018-10-07T02:20:08.036Z,96.20
2018-10-07T02:22:36.308Z,96.00
2018-10-07T02:25:05.443Z,96.00
2018-10-07T02:27:33.747Z,96.00
2018-10-07T02:30:02.032Z,95.80
2018-10-07T02:32:30.347Z,95.90
2018-10-07T02:34:58.674Z,95.90
2018-10-07T02:37:27.017Z,96.10
2018-10-07T02:39:55.324Z,96.30
2018-10-07T02:42:23.630Z,96.40
2018-10-07T02:44:51.953Z,96.50
2018-10-07T02:47:20.268Z,96.70
2018-10-07T02:49:48.580Z,96.60
2018-10-07T02:52:22.212Z,96.50
2018-10-07T02:54:50.524Z,96.80
2018-10-07T02:57:18.828Z,96.80
2018-10-07T02:59:47.898Z,96.70
2018-10-07T03:02:16.257Z,96.80
2018-10-07T03:04:44.572Z,96.80
2018-10-07T03:07:12.899Z,96.80
2018-10-07T03:09:41.234Z,97.30
2018-10-07T03:12:09.554Z,97.00
2018-10-07T03:14:37.861Z,97.10
2018-10-07T03:17:06.272Z,97.00
2018-10-07T03:19:34.623Z,96.60
2018-10-07T03:22:02.914Z,96.70
2018-10-07T03:24:31.220Z,96.90
2018-10-07T03:26:59.532Z,97.10
2018-10-07T03:29:27.874Z,97.10
2018-10-07T03:31:56.099Z,97.10
2018-10-07T03:34:24.388Z,97.20
2018-10-07T03:36:52.675Z,97.00
2018-10-07T03:39:20.975Z,96.70
2018-10-07T03:41:49.277Z,96.80
2018-10-07T03:44:17.576Z,96.80
2018-10-07T03:46:45.863Z,96.40
2018-10-07T03:49:14.159Z,96.20
2018-10-07T03:51:42.441Z,96.10
2018-10-07T03:54:10.735Z,96.00
2018-10-07T03:56:39.023Z,95.70
2018-10-07T03:59:07.305Z,95.90
2018-10-07T04:01:35.615Z,95.30
2018-10-07T04:04:03.916Z,95.60
2018-10-07T04:06:32.207Z,95.60
2018-10-07T04:09:00.533Z,95.60
2018-10-07T04:11:28.849Z,95.40
2018-10-07T04:13:57.152Z,95.30
2018-10-07T04:16:25.461Z,95.30
2018-10-07T04:18:53.776Z,95.40
2018-10-07T04:21:22.048Z,95.40
2018-10-07T04:23:50.333Z,95.50
2018-10-07T04:26:18.624Z,95.30
2018-10-07T04:28:46.911Z,95.30
2018-10-07T04:31:15.192Z,95.30
2018-10-07T04:33:43.572Z,95.10
2018-10-07T04:36:11.872Z,95.30
2018-10-07T04:38:40.571Z,95.30
2018-10-07T04:41:08.862Z,95.00
2018-10-07T04:43:37.183Z,95.10
2018-10-07T04:46:05.784Z,95.10
2018-10-07T04:48:34.112Z,95.10
2018-10-07T04:51:02.419Z,95.20
2018-10-07T04:53:30.875Z,95.20
2018-10-07T04:55:59.160Z,95.10
2018-10-07T04:58:27.439Z,94.90
2018-10-07T05:00:55.731Z,94.90
2018-10-07T05:03:24.022Z,95.00
2018-10-07T05:05:52.323Z,95.10
2018-10-07T05:08:20.751Z,95.10
2018-10-07T05:10:57.631Z,95.10
2018-10-07T05:13:32.027Z,95.00
2018-10-07T05:16:02.266Z,95.00
2018-10-07T05:18:31.205Z,95.00
2018-10-07T05:20:59.526Z,95.10
2018-10-07T05:23:27.788Z,95.50
2018-10-07T05:25:56.072Z,95.30
2018-10-07T05:28:24.375Z,95.20
2018-10-07T05:30:52.646Z,95.20
2018-10-07T05:33:20.978Z,95.30
2018-10-07T05:35:49.203Z,95.30
2018-10-07T05:38:17.468Z,95.20
2018-10-07T05:40:45.755Z,95.20
2018-10-07T05:43:14.075Z,95.20
2018-10-07T05:45:42.355Z,95.30
2018-10-07T05:48:10.653Z,95.30
2018-10-07T05:50:38.932Z,95.20
2018-10-07T05:53:07.203Z,95.20
2018-10-07T05:55:35.523Z,95.30
2018-10-07T05:58:05.482Z,95.30
2018-10-07T06:00:35.024Z,95.40
2018-10-07T06:04:08.075Z,95.70
2018-10-07T06:06:36.516Z,95.30
2018-10-07T06:09:06.853Z,95.40
2018-10-07T06:11:35.139Z,95.20
2018-10-07T06:14:03.481Z,95.30
2018-10-07T06:16:31.785Z,95.20
2018-10-07T06:19:00.060Z,95.10
2018-10-07T06:21:28.365Z,95.20
2018-10-07T06:23:56.676Z,95.10
2018-10-07T06:26:24.957Z,95.10
2018-10-07T06:28:53.267Z,95.20
2018-10-07T06:31:21.553Z,95.20
2018-10-07T06:33:49.827Z,95.10
2018-10-07T06:36:18.146Z,95.20
2018-10-07T06:38:46.430Z,95.10
2018-10-07T06:41:14.718Z,95.10
2018-10-07T06:43:42.995Z,95.20
2018-10-07T06:46:11.305Z,94.90
2018-10-07T06:48:39.591Z,95.10
2018-10-07T06:51:07.867Z,94.90
2018-10-07T06:53:36.146Z,94.90
2018-10-07T06:56:04.419Z,94.90
2018-10-07T06:58:32.707Z,94.70
2018-10-07T07:01:01.077Z,94.50
2018-10-07T07:03:29.359Z,94.40
2018-10-07T07:05:57.608Z,94.30
2018-10-07T07:08:25.883Z,94.30
2018-10-07T07:10:54.156Z,94.00
2018-10-07T07:13:22.497Z,93.90
2018-10-07T07:15:50.732Z,93.70
2018-10-07T07:18:19.044Z,93.60
2018-10-07T07:20:47.319Z,93.30
2018-10-07T07:23:15.619Z,93.20
2018-10-07T07:25:43.908Z,93.00
2018-10-07T07:28:12.244Z,92.80
2018-10-07T07:30:40.504Z,92.30
2018-10-07T07:33:08.771Z,92.40
2018-10-07T07:35:37.047Z,92.30
2018-10-07T07:38:05.347Z,92.20
2018-10-07T07:40:33.633Z,91.40
2018-10-07T07:43:01.900Z,90.90
2018-10-07T07:45:30.228Z,90.50
2018-10-07T07:47:58.521Z,90.30
2018-10-07T07:50:26.796Z,90.20
2018-10-07T07:52:55.063Z,89.70
2018-10-07T07:55:23.352Z,88.70
2018-10-07T07:57:51.649Z,88.00
2018-10-07T08:00:19.915Z,85.30
2018-10-07T08:02:48.193Z,82.50
2018-10-07T08:05:16.508Z,79.70
2018-10-07T08:07:44.807Z,76.40
2018-10-07T08:10:13.090Z,74.60
2018-10-07T08:12:41.556Z,72.40
2018-10-07T08:15:09.852Z,71.00
2018-10-07T08:17:38.189Z,69.30
2018-10-07T08:20:06.472Z,69.00
2018-10-07T08:22:34.752Z,68.40
2018-10-07T08:25:03.088Z,68.90
2018-10-07T08:27:31.388Z,67.50
2018-10-07T08:29:59.731Z,67.30
2018-10-07T08:32:28.023Z,66.10
2018-10-07T08:34:56.292Z,63.80
2018-10-07T08:37:24.567Z,61.60
2018-10-07T08:39:52.959Z,59.70
2018-10-07T08:42:21.244Z,57.00
2018-10-07T08:44:49.534Z,54.80
2018-10-07T08:47:17.987Z,53.10
2018-10-07T08:49:46.314Z,51.50
2018-10-07T08:52:14.581Z,50.60
2018-10-07T08:54:42.843Z,49.90
2018-10-07T08:57:11.151Z,48.70
2018-10-07T08:59:39.438Z,46.70
2018-10-07T09:02:07.739Z,45.60
2018-10-07T09:04:36.060Z,43.70
2018-10-07T09:07:04.436Z,43.50
2018-10-07T09:09:32.758Z,43.30
2018-10-07T09:12:01.069Z,42.30
2018-10-07T09:14:29.467Z,41.20
2018-10-07T09:16:57.732Z,39.60
2018-10-07T09:19:26.011Z,38.60
2018-10-07T09:21:54.291Z,38.80
2018-10-07T09:24:22.608Z,38.40
2018-10-07T09:26:50.984Z,37.70
2018-10-07T09:29:19.196Z,38.10
2018-10-07T09:31:47.505Z,37.90
2018-10-07T09:34:15.772Z,38.00
2018-10-07T09:36:44.087Z,37.30
2018-10-07T09:39:13.036Z,37.40
2018-10-07T09:41:41.315Z,36.80
2018-10-07T09:44:09.893Z,36.30
2018-10-07T09:46:38.379Z,36.50
2018-10-07T09:49:13.320Z,36.50
2018-10-07T09:51:41.586Z,36.50
2018-10-07T09:54:09.894Z,37.80
2018-10-07T09:56:38.198Z,37.80
2018-10-07T09:59:06.661Z,36.50
2018-10-07T10:01:34.955Z,36.80
2018-10-07T10:04:03.460Z,36.90
2018-10-07T10:06:31.784Z,37.10
2018-10-07T10:09:00.061Z,37.80
2018-10-07T10:11:28.529Z,39.40
2018-10-07T10:13:56.825Z,40.20
2018-10-07T10:16:34.837Z,40.00
2018-10-07T10:19:04.451Z,43.00
2018-10-07T10:21:40.043Z,44.60
2018-10-07T10:25:19.568Z,45.20
2018-10-07T10:28:02.026Z,45.00
2018-10-07T10:31:05.596Z,44.20
2018-10-07T10:33:36.195Z,43.40
2018-10-07T10:36:39.551Z,44.10
2018-10-07T10:40:21.235Z,45.50
2018-10-07T10:42:54.751Z,45.60
2018-10-07T10:45:31.072Z,46.80
2018-10-07T10:48:03.100Z,46.90
2018-10-07T10:50:39.992Z,46.40
2018-10-07T10:53:17.869Z,45.30
2018-10-07T10:55:58.740Z,45.40
2018-10-07T10:58:44.911Z,46.50
2018-10-07T11:01:15.336Z,46.70
2018-10-07T11:03:51.288Z,46.70
2018-10-07T11:06:39.547Z,47.60
2018-10-07T11:09:48.060Z,48.20
2018-10-07T11:12:58.900Z,47.90
2018-10-07T11:15:31.457Z,47.70
2018-10-07T11:18:11.317Z,48.30
2018-10-07T11:20:46.791Z,49.30
2018-10-07T11:23:26.496Z,49.70
2018-10-07T11:26:02.453Z,49.50
2018-10-07T11:29:38.383Z,50.70
2018-10-07T11:32:14.616Z,50.00
2018-10-07T11:35:03.243Z,50.10
2018-10-07T11:38:15.365Z,50.50
2018-10-07T11:40:56.179Z,50.20
2018-10-07T11:43:33.488Z,50.90
2018-10-07T11:46:13.251Z,51.70
2018-10-07T11:49:13.475Z,52.00
2018-10-07T11:51:54.618Z,53.20
2018-10-07T11:54:53.724Z,52.80
2018-10-07T11:57:21.999Z,53.20
2018-10-07T11:59:50.266Z,53.10
2018-10-07T12:02:18.708Z,54.10
2018-10-07T12:04:46.911Z,54.30
2018-10-07T12:07:15.546Z,54.20
2018-10-07T12:09:43.901Z,55.10
2018-10-07T12:12:12.607Z,53.70
2018-10-07T12:14:40.901Z,53.50
2018-10-07T12:17:09.899Z,53.20
2018-10-07T12:19:38.476Z,54.30
2018-10-07T12:22:06.984Z,55.30
2018-10-07T12:24:35.431Z,55.70
2018-10-07T12:27:03.728Z,56.50
2018-10-07T12:29:32.027Z,56.20
2018-10-07T12:32:00.295Z,56.80
2018-10-07T12:34:28.656Z,56.10
2018-10-07T12:36:57.008Z,57.10
2018-10-07T12:39:25.391Z,57.60
2018-10-07T12:41:53.683Z,58.70
2018-10-07T12:44:21.983Z,58.30
2018-10-07T12:46:50.261Z,58.90
2018-10-07T12:49:18.563Z,59.60
2018-10-07T12:51:46.884Z,59.50
2018-10-07T12:54:15.229Z,59.80
2018-10-07T12:56:43.544Z,59.90
2018-10-07T12:59:11.840Z,61.00
2018-10-07T13:01:40.143Z,60.90
2018-10-07T13:04:08.459Z,61.20
2018-10-07T13:06:36.737Z,62.10
2018-10-07T13:09:07.976Z,62.00
2018-10-07T13:11:36.415Z,61.80
2018-10-07T13:14:04.731Z,61.90
2018-10-07T13:16:33.037Z,62.10
2018-10-07T13:19:01.344Z,62.10
2018-10-07T13:21:29.640Z,61.50
2018-10-07T13:23:57.923Z,61.60
2018-10-07T13:26:26.225Z,61.00
2018-10-07T13:28:54.510Z,61.40
2018-10-07T13:31:22.779Z,60.40
2018-10-07T13:33:51.043Z,60.90
2018-10-07T13:36:19.327Z,60.50
2018-10-07T13:38:47.581Z,60.90
2018-10-07T13:41:15.888Z,61.40
2018-10-07T13:43:44.168Z,62.00
2018-10-07T13:46:12.502Z,61.50
2018-10-07T13:48:40.795Z,61.80
2018-10-07T13:51:09.057Z,63.30
2018-10-07T13:53:37.374Z,63.70
2018-10-07T13:56:11.960Z,64.40
2018-10-07T13:58:40.251Z,64.10
2018-10-07T14:01:08.575Z,65.30
2018-10-07T14:03:37.111Z,65.50
2018-10-07T14:06:05.378Z,65.50
2018-10-07T14:08:33.709Z,65.20
2018-10-07T14:11:02.047Z,65.30
2018-10-07T14:13:30.363Z,65.80
2018-10-07T14:15:58.655Z,66.50
2018-10-07T14:18:26.947Z,67.00
2018-10-07T14:20:55.220Z,66.30
2018-10-07T14:23:23.509Z,65.80
2018-10-07T14:25:51.787Z,65.60
2018-10-07T14:28:20.072Z,66.30
2018-10-07T14:30:48.376Z,66.70
2018-10-07T14:33:16.684Z,67.50
2018-10-07T14:35:44.987Z,67.20
2018-10-07T14:38:13.302Z,67.60
2018-10-07T14:40:41.612Z,68.20
2018-10-07T14:43:09.876Z,67.80
2018-10-07T14:45:38.156Z,67.50
2018-10-07T14:48:06.518Z,67.40
2018-10-07T14:50:35.284Z,67.40
2018-10-07T14:53:03.579Z,67.40
2018-10-07T14:55:31.872Z,68.00
2018-10-07T14:58:00.295Z,67.40
2018-10-07T15:00:28.592Z,67.80
2018-10-07T15:02:56.887Z,67.50
2018-10-07T15:05:25.187Z,67.40
2018-10-07T15:07:53.467Z,67.40
2018-10-07T15:10:21.784Z,67.20
2018-10-07T15:12:50.071Z,66.70
2018-10-07T15:15:18.369Z,66.70
2018-10-07T15:17:46.685Z,67.30
2018-10-07T15:20:14.999Z,67.40
2018-10-07T15:22:43.291Z,67.70
2018-10-07T15:25:11.567Z,68.20
2018-10-07T15:27:39.830Z,68.20
2018-10-07T15:30:08.121Z,68.20
2018-10-07T15:32:36.460Z,68.10
2018-10-07T15:35:04.740Z,68.80
2018-10-07T15:37:33.008Z,67.80
2018-10-07T15:40:01.430Z,68.30
2018-10-07T15:42:29.736Z,68.20
2018-10-07T15:44:58.018Z,68.40
2018-10-07T15:47:26.368Z,68.50
2018-10-07T15:49:54.672Z,68.50
2018-10-07T15:52:23.039Z,69.10
2018-10-07T15:54:51.359Z,69.40
2018-10-07T15:57:19.677Z,69.50
2018-10-07T15:59:47.947Z,69.40
2018-10-07T16:02:16.222Z,69.70
2018-10-07T16:04:44.500Z,69.90
2018-10-07T16:07:12.772Z,69.60
2018-10-07T16:09:41.129Z,69.90
2018-10-07T16:12:09.389Z,70.40
2018-10-07T16:14:37.802Z,70.80
2018-10-07T16:17:06.225Z,71.60
2018-10-07T16:19:34.516Z,71.90
2018-10-07T16:22:02.799Z,72.10
2018-10-07T16:24:31.247Z,72.60
2018-10-07T16:26:59.476Z,72.90
2018-10-07T16:29:27.804Z,72.70
2018-10-07T16:31:56.096Z,73.10
2018-10-07T16:34:24.496Z,73.70
2018-10-07T16:36:52.813Z,74.00
2018-10-07T16:39:21.255Z,75.00
2018-10-07T16:41:49.460Z,75.30
2018-10-07T16:44:17.729Z,75.20
2018-10-07T16:46:46.032Z,75.60
2018-10-07T16:49:14.372Z,76.40
2018-10-07T16:51:42.700Z,77.60
2018-10-07T16:54:10.980Z,78.70
2018-10-07T16:56:39.266Z,78.70
2018-10-07T16:59:07.546Z,78.30
2018-10-07T17:01:35.896Z,79.10
2018-10-07T17:04:04.256Z,79.50
2018-10-07T17:06:32.568Z,79.70
2018-10-07T17:09:00.856Z,80.10
2018-10-07T17:11:29.134Z,79.80
2018-10-07T17:13:57.426Z,79.80
2018-10-07T17:16:25.688Z,80.10
2018-10-07T17:18:53.967Z,80.80
2018-10-07T17:21:22.245Z,80.60
2018-10-07T17:23:50.536Z,80.50
2018-10-07T17:26:18.825Z,80.80
2018-10-07T17:28:47.091Z,81.00
2018-10-07T17:31:15.403Z,80.90
2018-10-07T17:33:43.681Z,81.30
2018-10-07T17:36:11.975Z,82.00
2018-10-07T17:38:40.262Z,82.90
2018-10-07T17:41:08.571Z,83.10
2018-10-07T17:43:36.877Z,83.80
2018-10-07T17:46:05.164Z,84.10
2018-10-07T17:48:33.446Z,84.60
2018-10-07T17:51:01.772Z,84.90
2018-10-07T17:53:30.466Z,85.90
2018-10-07T17:55:58.747Z,85.20
2018-10-07T17:58:27.098Z,85.00
2018-10-07T18:00:55.402Z,85.70
2018-10-07T18:03:23.773Z,85.40
2018-10-07T18:05:51.972Z,85.90
2018-10-07T18:08:20.300Z,85.00
2018-10-07T18:10:48.610Z,84.90
2018-10-07T18:13:16.901Z,85.30
2018-10-07T18:15:45.199Z,84.40
2018-10-07T18:18:13.480Z,84.10
2018-10-07T18:20:42.377Z,84.20
2018-10-07T18:23:10.664Z,84.80
2018-10-07T18:25:38.939Z,84.90
2018-10-07T18:28:07.214Z,84.90
2018-10-07T18:30:35.544Z,85.00
2018-10-07T18:33:04.224Z,85.40
2018-10-07T18:35:32.532Z,85.90
2018-10-07T18:38:00.845Z,86.20
2018-10-07T18:40:29.165Z,87.00
2018-10-07T18:42:57.479Z,86.50
2018-10-07T18:45:28.632Z,86.30
2018-10-07T18:47:56.951Z,86.50
2018-10-07T18:50:25.248Z,86.60
2018-10-07T18:52:53.659Z,86.70
2018-10-07T18:55:21.967Z,87.30
2018-10-07T18:57:50.274Z,87.70
2018-10-07T19:00:18.593Z,87.70
2018-10-07T19:02:46.962Z,87.60
2018-10-07T19:05:15.216Z,87.70
2018-10-07T19:07:43.493Z,87.90
2018-10-07T19:10:11.768Z,88.00
2018-10-07T19:12:40.053Z,88.10
2018-10-07T19:15:08.339Z,88.00
2018-10-07T19:17:36.631Z,88.40
2018-10-07T19:20:04.943Z,88.40
2018-10-07T19:22:33.223Z,88.40
2018-10-07T19:25:01.524Z,88.80
2018-10-07T19:27:29.891Z,88.80
2018-10-07T19:29:58.193Z,88.70
2018-10-07T19:32:26.456Z,89.70
2018-10-07T19:34:54.780Z,90.10
2018-10-07T19:37:23.202Z,90.30
2018-10-07T19:39:51.360Z,90.40
2018-10-07T19:42:19.639Z,90.30
2018-10-07T19:44:47.960Z,90.80
2018-10-07T19:47:16.211Z,91.10
2018-10-07T19:49:44.484Z,91.30
2018-10-07T19:52:12.802Z,91.40
2018-10-07T19:54:41.083Z,91.70
2018-10-07T19:57:09.361Z,91.90
2018-10-07T19:59:37.682Z,92.30
2018-10-07T20:02:12.592Z,92.00
2018-10-07T20:04:40.847Z,92.40
2018-10-07T20:07:09.115Z,92.70
2018-10-07T20:09:37.387Z,92.60
2018-10-07T20:12:05.666Z,92.60
2018-10-07T20:14:33.952Z,92.70
2018-10-07T20:17:02.211Z,92.80
2018-10-07T20:19:30.607Z,92.70
2018-10-07T20:21:58.843Z,92.80
2018-10-07T20:24:27.105Z,92.70
2018-10-07T20:26:55.384Z,92.90
2018-10-07T20:29:23.679Z,92.90
2018-10-07T20:31:51.972Z,93.00
2018-10-07T20:34:20.243Z,93.00
2018-10-07T20:36:48.512Z,93.20
2018-10-07T20:39:16.777Z,93.20
2018-10-07T20:41:45.032Z,93.30
2018-10-07T20:44:13.292Z,93.30
2018-10-07T20:46:41.597Z,93.60
2018-10-07T20:49:09.872Z,93.60
2018-10-07T20:51:38.148Z,93.60
2018-10-07T20:54:06.424Z,93.40
2018-10-07T20:56:34.704Z,93.40
2018-10-07T20:59:02.989Z,93.40
2018-10-07T21:01:31.251Z,93.80
2018-10-07T21:03:59.553Z,94.10
2018-10-07T21:06:27.832Z,94.30
2018-10-07T21:08:56.216Z,94.30
2018-10-07T21:11:24.492Z,94.10
2018-10-07T21:13:52.811Z,94.20
2018-10-07T21:16:21.207Z,94.60
2018-10-07T21:18:49.496Z,94.80
2018-10-07T21:21:17.808Z,94.50
2018-10-07T21:23:46.071Z,94.70
2018-10-07T21:26:14.383Z,95.10
2018-10-07T21:28:42.656Z,95.00
2018-10-07T21:31:11.100Z,95.20
2018-10-07T21:33:39.408Z,95.20
2018-10-07T21:36:07.673Z,95.10
2018-10-07T21:38:36.083Z,95.20
2018-10-07T21:41:04.392Z,95.40
2018-10-07T21:43:32.658Z,95.30
2018-10-07T21:46:00.941Z,95.30
2018-10-07T21:48:29.244Z,95.40
2018-10-07T21:50:57.515Z,95.50
2018-10-07T21:53:25.902Z,95.40
2018-10-07T21:55:54.196Z,95.50
2018-10-07T21:58:22.560Z,95.70
2018-10-07T22:00:50.872Z,96.00
2018-10-07T22:03:19.156Z,96.10
2018-10-07T22:05:47.466Z,96.10
2018-10-07T22:08:15.798Z,96.20
2018-10-07T22:10:44.083Z,96.10
2018-10-07T22:13:12.360Z,96.10
2018-10-07T22:15:40.631Z,96.40
2018-10-07T22:18:08.940Z,96.40
2018-10-07T22:20:37.222Z,96.60
2018-10-07T22:23:05.558Z,96.60
2018-10-07T22:25:33.842Z,96.70
2018-10-07T22:28:02.125Z,96.70
2018-10-07T22:30:30.495Z,96.60
2018-10-07T22:32:58.772Z,96.60
2018-10-07T22:35:27.052Z,96.60
2018-10-07T22:37:55.322Z,96.50
2018-10-07T22:40:23.596Z,96.50
2018-10-07T22:42:51.872Z,96.60
2018-10-07T22:45:20.235Z,96.60
2018-10-07T22:47:48.519Z,96.70
2018-10-07T22:50:16.763Z,96.50
2018-10-07T22:52:45.033Z,96.50
2018-10-07T22:55:13.314Z,96.60
2018-10-07T22:57:41.569Z,96.70
2018-10-07T23:00:09.868Z,96.80
2018-10-07T23:02:38.120Z,96.70
2018-10-07T23:05:06.399Z,96.80
2018-10-07T23:07:34.710Z,96.90
2018-10-07T23:10:02.969Z,96.80
2018-10-07T23:12:31.244Z,97.00
2018-10-07T23:14:59.495Z,96.90
2018-10-07T23:17:27.739Z,96.90
2018-10-07T23:19:55.987Z,97.00
2018-10-07T23:22:24.253Z,97.30
2018-10-07T23:24:52.532Z,97.50
2018-10-07T23:27:20.782Z,97.60
2018-10-07T23:29:49.051Z,97.60
2018-10-07T23:32:17.386Z,97.70
2018-10-07T23:34:45.642Z,97.80
2018-10-07T23:37:13.924Z,97.50
2018-10-07T23:39:42.183Z,97.50
2018-10-07T23:42:10.450Z,97.50
2018-10-07T23:44:38.780Z,97.40
2018-10-07T23:47:07.042Z,97.40
2018-10-07T23:49:35.304Z,97.50
2018-10-07T23:52:03.618Z,97.50
2018-10-07T23:54:31.888Z,97.40
2018-10-07T23:57:00.187Z,97.60
2018-10-07T23:59:28.484Z,97.70
